createdAt,value
2022-10-20T00:01:08.621Z,19.10
2022-10-20T00:03:38.577Z,19.10
2022-10-20T00:06:07.898Z,19.10
2022-10-20T00:08:36.348Z,19.20
2022-10-20T00:11:05.052Z,19.10
2022-10-20T00:13:33.568Z,19.00
2022-10-20T00:16:02.034Z,19.00
2022-10-20T00:18:30.432Z,19.10
2022-10-20T00:21:00.155Z,19.10
2022-10-20T00:23:28.543Z,19.10
2022-10-20T00:26:03.527Z,19.10
2022-10-20T00:28:31.964Z,19.20
2022-10-20T00:31:00.344Z,19.20
2022-10-20T00:33:28.776Z,19.20
2022-10-20T00:36:00.981Z,19.10
2022-10-20T00:38:29.410Z,19.10
2022-10-20T00:41:00.125Z,19.10
2022-10-20T00:43:45.301Z,19.20
2022-10-20T00:46:14.970Z,19.20
2022-10-20T00:48:44.089Z,19.10
2022-10-20T00:51:15.441Z,19.10
2022-10-20T00:53:44.638Z,19.20
2022-10-20T00:56:13.196Z,19.00
2022-10-20T00:58:42.043Z,19.10
2022-10-20T01:01:10.570Z,19.10
2022-10-20T01:03:45.573Z,19.10
2022-10-20T01:08:45.975Z,19.10
2022-10-20T01:11:17.825Z,19.10
2022-10-20T01:13:54.090Z,19.00
2022-10-20T01:16:27.396Z,19.00
2022-10-20T01:19:01.952Z,19.00
2022-10-20T01:21:41.186Z,19.10
2022-10-20T01:24:33.397Z,19.00
2022-10-20T01:27:24.363Z,19.00
2022-10-20T01:29:55.771Z,18.90
2022-10-20T01:32:25.829Z,18.90
2022-10-20T01:34:59.760Z,18.90
2022-10-20T01:37:40.731Z,19.00
2022-10-20T01:40:20.973Z,19.00
2022-10-20T01:42:52.266Z,19.00
2022-10-20T01:45:22.394Z,19.00
2022-10-20T01:47:51.655Z,19.00
2022-10-20T01:50:20.739Z,19.00
2022-10-20T01:52:49.121Z,18.90
2022-10-20T01:55:18.843Z,18.90
2022-10-20T01:57:53.046Z,18.90
2022-10-20T02:00:23.054Z,18.90
2022-10-20T02:03:05.648Z,18.90
2022-10-20T02:05:45.848Z,18.80
2022-10-20T02:08:15.599Z,18.80
2022-10-20T02:10:46.890Z,18.70
2022-10-20T02:13:15.928Z,18.70
2022-10-20T02:15:47.405Z,18.60
2022-10-20T02:18:18.066Z,18.60
2022-10-20T02:20:48.519Z,18.60
2022-10-20T02:23:17.440Z,18.60
2022-10-20T02:25:48.015Z,18.60
2022-10-20T02:28:16.974Z,18.60
2022-10-20T02:30:47.067Z,18.60
2022-10-20T02:33:15.644Z,18.50
2022-10-20T02:35:49.614Z,18.60
2022-10-20T02:38:18.094Z,18.60
2022-10-20T02:40:46.519Z,18.60
2022-10-20T02:43:14.981Z,18.60
2022-10-20T02:45:43.405Z,18.70
2022-10-20T02:48:13.150Z,18.60
2022-10-20T02:50:41.653Z,18.60
2022-10-20T02:53:10.041Z,18.50
2022-10-20T02:55:38.444Z,18.50
2022-10-20T02:58:06.830Z,18.50
2022-10-20T03:00:35.214Z,18.50
2022-10-20T03:03:03.703Z,18.50
2022-10-20T03:05:33.517Z,18.40
2022-10-20T03:08:01.933Z,18.40
2022-10-20T03:10:30.377Z,18.50
2022-10-20T03:12:58.735Z,18.50
2022-10-20T03:15:27.148Z,18.50
2022-10-20T03:17:55.575Z,18.40
2022-10-20T03:20:23.901Z,18.40
2022-10-20T03:22:53.709Z,18.40
2022-10-20T03:25:22.066Z,18.40
2022-10-20T03:27:50.446Z,18.40
2022-10-20T03:30:18.912Z,18.30
2022-10-20T03:32:47.301Z,18.20
2022-10-20T03:35:15.830Z,18.20
2022-10-20T03:37:44.246Z,18.10
2022-10-20T03:40:14.146Z,18.10
2022-10-20T03:42:42.521Z,18.10
2022-10-20T03:45:13.755Z,18.20
2022-10-20T03:47:44.720Z,18.20
2022-10-20T03:50:13.113Z,18.20
2022-10-20T03:52:41.473Z,18.20
2022-10-20T03:55:10.107Z,18.20
2022-10-20T03:57:39.878Z,18.20
2022-10-20T04:00:08.801Z,18.20
2022-10-20T04:02:38.670Z,18.30
2022-10-20T04:05:07.742Z,18.30
2022-10-20T04:07:36.157Z,18.30
2022-10-20T04:10:04.778Z,18.20
2022-10-20T04:12:33.367Z,18.30
2022-10-20T04:15:03.366Z,18.40
2022-10-20T04:17:31.951Z,18.30
2022-10-20T04:20:00.405Z,18.40
2022-10-20T04:22:28.844Z,18.40
2022-10-20T04:24:57.337Z,18.40
2022-10-20T04:27:25.772Z,18.30
2022-10-20T04:29:54.098Z,18.30
2022-10-20T04:32:23.834Z,18.20
2022-10-20T04:34:52.243Z,18.10
2022-10-20T04:37:20.613Z,18.10
2022-10-20T04:39:51.125Z,18.10
2022-10-20T04:42:19.607Z,18.10
2022-10-20T04:44:48.056Z,18.10
2022-10-20T04:47:16.489Z,18.10
2022-10-20T04:49:46.284Z,18.10
2022-10-20T04:52:14.642Z,18.10
2022-10-20T04:54:42.986Z,18.00
2022-10-20T04:57:11.496Z,18.10
2022-10-20T04:59:39.909Z,18.10
2022-10-20T05:02:08.405Z,18.00
2022-10-20T05:04:36.825Z,18.10
2022-10-20T05:07:06.626Z,18.20
2022-10-20T05:09:35.114Z,18.20
2022-10-20T05:12:03.593Z,18.20
2022-10-20T05:14:32.061Z,18.20
2022-10-20T05:17:00.517Z,18.10
2022-10-20T05:19:29.013Z,18.10
2022-10-20T05:21:57.343Z,18.10
2022-10-20T05:24:29.964Z,18.10
2022-10-20T05:26:58.643Z,18.10
2022-10-20T05:29:26.989Z,18.20
2022-10-20T05:31:55.398Z,18.30
2022-10-20T05:34:23.779Z,18.20
2022-10-20T05:36:53.589Z,18.20
2022-10-20T05:39:22.165Z,18.20
2022-10-20T05:41:52.013Z,18.10
2022-10-20T05:44:20.380Z,18.00
2022-10-20T05:46:48.774Z,18.00
2022-10-20T05:49:18.037Z,18.10
2022-10-20T05:51:47.061Z,18.00
2022-10-20T05:54:15.741Z,18.10
2022-10-20T05:56:44.146Z,18.20
2022-10-20T05:59:14.444Z,18.20
2022-10-20T06:01:49.103Z,18.20
2022-10-20T06:04:18.417Z,18.30
2022-10-20T06:06:49.004Z,18.30
2022-10-20T06:09:18.054Z,18.40
2022-10-20T06:11:46.516Z,18.50
2022-10-20T06:14:17.362Z,18.60
2022-10-20T06:16:46.226Z,18.60
2022-10-20T06:19:14.575Z,18.60
2022-10-20T06:24:16.644Z,18.60
2022-10-20T06:26:45.406Z,18.70
2022-10-20T06:29:15.488Z,18.60
2022-10-20T06:31:45.865Z,18.60
2022-10-20T06:34:16.277Z,18.60
2022-10-20T06:36:45.626Z,18.70
2022-10-20T06:39:14.749Z,18.80
2022-10-20T06:41:43.218Z,18.80
2022-10-20T06:44:11.558Z,18.80
2022-10-20T06:46:40.014Z,18.90
2022-10-20T06:49:11.617Z,19.00
2022-10-20T06:51:40.103Z,19.10
2022-10-20T06:54:09.424Z,19.10
2022-10-20T06:56:38.139Z,19.00
2022-10-20T06:59:06.850Z,19.00
2022-10-20T07:01:36.096Z,19.00
2022-10-20T07:04:05.932Z,19.00
2022-10-20T07:06:36.467Z,19.10
2022-10-20T07:09:07.372Z,19.10
2022-10-20T07:11:36.385Z,19.10
2022-10-20T07:14:05.783Z,19.10
2022-10-20T07:16:35.371Z,19.10
2022-10-20T07:19:04.654Z,19.10
2022-10-20T07:21:36.550Z,19.20
2022-10-20T07:24:09.439Z,19.20
2022-10-20T07:26:39.234Z,19.30
2022-10-20T07:29:08.190Z,19.40
2022-10-20T07:31:37.557Z,19.40
2022-10-20T07:34:23.360Z,19.60
2022-10-20T07:36:53.482Z,19.60
2022-10-20T07:39:23.691Z,19.80
2022-10-20T07:41:52.071Z,19.90
2022-10-20T07:44:20.458Z,19.90
2022-10-20T07:46:48.953Z,20.00
2022-10-20T07:49:43.003Z,20.20
2022-10-20T07:52:05.982Z,20.40
2022-10-20T07:54:35.903Z,20.50
2022-10-20T07:57:04.215Z,20.50
2022-10-20T07:59:32.679Z,20.60
2022-10-20T08:02:01.087Z,20.70
2022-10-20T08:04:31.801Z,20.80
2022-10-20T08:07:00.767Z,20.90
2022-10-20T08:09:29.355Z,20.90
2022-10-20T08:11:59.143Z,21.00
2022-10-20T08:14:31.853Z,21.00
2022-10-20T08:17:00.845Z,21.10
2022-10-20T08:22:19.256Z,21.30
2022-10-20T08:24:47.771Z,21.40
2022-10-20T08:27:17.606Z,21.50
2022-10-20T08:29:54.985Z,21.40
2022-10-20T08:32:28.898Z,21.40
2022-10-20T08:34:57.334Z,21.30
2022-10-20T08:37:25.712Z,21.30
2022-10-20T08:39:54.062Z,21.30
2022-10-20T08:42:24.254Z,21.30
2022-10-20T08:44:53.587Z,21.30
2022-10-20T08:47:29.170Z,21.30
2022-10-20T08:50:00.920Z,21.20
2022-10-20T08:52:29.500Z,21.10
2022-10-20T08:54:59.058Z,21.00
2022-10-20T08:57:33.412Z,21.10
2022-10-20T09:00:14.043Z,21.30
2022-10-20T09:02:42.499Z,21.40
2022-10-20T09:05:13.975Z,21.30
2022-10-20T09:07:45.359Z,21.30
2022-10-20T09:10:17.733Z,21.30
2022-10-20T09:12:48.249Z,21.20
2022-10-20T09:15:17.598Z,21.10
2022-10-20T09:17:48.614Z,21.10
2022-10-20T09:20:20.480Z,21.20
2022-10-20T09:22:49.257Z,21.20
2022-10-20T09:25:19.314Z,21.20
2022-10-20T09:27:49.505Z,21.20
2022-10-20T09:30:19.353Z,20.90
2022-10-20T09:32:48.569Z,20.80
2022-10-20T09:35:21.943Z,20.80
2022-10-20T09:37:53.750Z,20.90
2022-10-20T09:40:22.724Z,21.00
2022-10-20T09:42:54.045Z,21.00
2022-10-20T09:45:24.030Z,21.00
2022-10-20T09:47:54.971Z,20.90
2022-10-20T09:50:26.715Z,21.00
2022-10-20T09:52:55.514Z,20.90
2022-10-20T09:55:28.216Z,21.00
2022-10-20T09:57:59.043Z,21.00
2022-10-20T10:00:37.687Z,21.20
2022-10-20T10:03:20.033Z,21.10
2022-10-20T10:05:50.157Z,21.10
2022-10-20T10:08:18.859Z,21.00
2022-10-20T10:10:58.042Z,21.20
2022-10-20T10:13:29.034Z,21.30
2022-10-20T10:16:05.639Z,21.40
2022-10-20T10:18:34.174Z,21.10
2022-10-20T10:21:03.917Z,21.00
2022-10-20T10:23:34.126Z,21.00
2022-10-20T10:26:03.365Z,21.20
2022-10-20T10:28:34.774Z,21.10
2022-10-20T10:31:07.273Z,21.00
2022-10-20T10:33:35.689Z,21.00
2022-10-20T10:36:06.996Z,21.20
2022-10-20T10:38:36.610Z,21.30
2022-10-20T10:41:09.606Z,21.30
2022-10-20T10:43:44.883Z,21.20
2022-10-20T10:46:18.217Z,21.10
2022-10-20T10:48:59.419Z,21.10
2022-10-20T10:51:35.034Z,21.30
2022-10-20T10:54:12.561Z,21.20
2022-10-20T10:56:44.255Z,21.30
2022-10-20T10:59:16.940Z,21.40
2022-10-20T11:01:57.568Z,21.40
2022-10-20T11:04:50.145Z,21.50
2022-10-20T11:07:25.020Z,21.50
2022-10-20T11:09:59.193Z,21.50
2022-10-20T11:12:37.867Z,21.40
2022-10-20T11:15:13.106Z,21.50
2022-10-20T11:17:48.251Z,21.50
2022-10-20T11:20:34.291Z,21.40
2022-10-20T11:23:19.844Z,21.30
2022-10-20T11:25:50.616Z,21.30
2022-10-20T11:28:26.681Z,21.20
2022-10-20T11:30:56.876Z,21.10
2022-10-20T11:33:28.531Z,21.30
2022-10-20T11:35:59.637Z,21.40
2022-10-20T11:38:32.909Z,21.40
2022-10-20T11:41:04.227Z,21.30
2022-10-20T11:43:34.688Z,21.20
2022-10-20T11:46:06.125Z,21.20
2022-10-20T11:48:36.168Z,21.20
2022-10-20T11:51:11.999Z,21.10
2022-10-20T11:53:55.415Z,21.10
2022-10-20T11:56:34.286Z,21.10
2022-10-20T11:59:08.781Z,21.20
2022-10-20T12:01:42.132Z,21.20
2022-10-20T12:04:28.252Z,21.20
2022-10-20T12:07:17.351Z,21.30
2022-10-20T12:09:57.221Z,21.50
2022-10-20T12:12:29.502Z,21.40
2022-10-20T12:14:58.935Z,21.40
2022-10-20T12:17:36.642Z,21.30
2022-10-20T12:20:28.776Z,21.10
2022-10-20T12:22:59.189Z,21.20
2022-10-20T12:25:38.060Z,21.10
2022-10-20T12:28:21.253Z,21.20
2022-10-20T12:30:55.045Z,21.00
2022-10-20T12:33:37.746Z,21.00
2022-10-20T12:36:23.849Z,21.00
2022-10-20T12:38:54.184Z,21.10
2022-10-20T12:41:27.380Z,21.00
2022-10-20T12:43:59.533Z,21.00
2022-10-20T12:46:30.870Z,21.10
2022-10-20T12:49:05.593Z,21.10
2022-10-20T12:51:40.907Z,21.10
2022-10-20T12:54:17.237Z,21.00
2022-10-20T12:56:46.123Z,21.00
2022-10-20T12:59:25.137Z,20.90
2022-10-20T13:02:16.443Z,21.00
2022-10-20T13:04:56.241Z,20.90
2022-10-20T13:07:43.218Z,20.90
2022-10-20T13:10:30.111Z,20.90
2022-10-20T13:13:30.602Z,20.90
2022-10-20T13:15:59.281Z,21.00
2022-10-20T13:18:28.599Z,21.20
2022-10-20T13:20:59.654Z,21.10
2022-10-20T13:23:31.316Z,20.90
2022-10-20T13:26:00.435Z,21.00
2022-10-20T13:28:29.734Z,21.20
2022-10-20T13:31:06.135Z,21.10
2022-10-20T13:34:02.551Z,21.30
2022-10-20T13:36:33.665Z,21.30
2022-10-20T13:39:03.736Z,21.30
2022-10-20T13:41:36.914Z,21.20
2022-10-20T13:44:11.064Z,20.90
2022-10-20T13:46:44.960Z,20.90
2022-10-20T13:49:22.607Z,21.10
2022-10-20T13:51:53.920Z,21.10
2022-10-20T13:54:24.298Z,21.00
2022-10-20T13:56:53.217Z,21.00
2022-10-20T14:01:53.272Z,21.00
2022-10-20T14:04:25.885Z,21.00
2022-10-20T14:06:55.812Z,20.80
2022-10-20T14:09:24.930Z,20.90
2022-10-20T14:11:55.471Z,21.00
2022-10-20T14:14:25.234Z,21.00
2022-10-20T14:16:54.667Z,20.90
2022-10-20T14:19:27.724Z,20.90
2022-10-20T14:21:58.349Z,21.00
2022-10-20T14:24:31.421Z,20.90
2022-10-20T14:27:00.791Z,20.70
2022-10-20T14:29:30.339Z,20.60
2022-10-20T14:31:58.997Z,20.70
2022-10-20T14:34:29.286Z,20.90
2022-10-20T14:36:59.617Z,20.90
2022-10-20T14:39:34.200Z,20.90
2022-10-20T14:42:03.797Z,20.70
2022-10-20T14:44:32.529Z,20.60
2022-10-20T14:47:05.250Z,20.60
2022-10-20T14:49:35.168Z,20.70
2022-10-20T14:52:05.592Z,20.70
2022-10-20T14:54:37.026Z,20.60
2022-10-20T14:57:24.283Z,20.50
2022-10-20T14:59:55.914Z,20.50
2022-10-20T15:02:26.052Z,20.50
2022-10-20T15:04:54.402Z,20.50
2022-10-20T15:07:25.048Z,20.50
2022-10-20T15:09:54.316Z,20.60
2022-10-20T15:12:23.598Z,20.70
2022-10-20T15:14:53.274Z,20.80
2022-10-20T15:17:34.697Z,20.90
2022-10-20T15:20:21.574Z,20.80
2022-10-20T15:22:53.475Z,20.80
2022-10-20T15:25:24.095Z,20.50
2022-10-20T15:27:52.427Z,20.40
2022-10-20T15:30:21.955Z,20.30
2022-10-20T15:32:50.533Z,20.20
2022-10-20T15:35:20.316Z,20.10
2022-10-20T15:37:49.903Z,20.10
2022-10-20T15:40:20.182Z,20.10
2022-10-20T15:42:48.931Z,20.10
2022-10-20T15:45:18.666Z,20.10
2022-10-20T15:47:47.079Z,20.10
2022-10-20T15:50:15.622Z,20.10
2022-10-20T15:52:44.185Z,20.10
2022-10-20T15:55:22.490Z,20.00
2022-10-20T15:57:52.596Z,19.90
2022-10-20T16:00:22.198Z,19.90
2022-10-20T16:02:50.837Z,19.90
2022-10-20T16:05:19.745Z,19.80
2022-10-20T16:07:48.384Z,19.80
2022-10-20T16:10:16.763Z,19.80
2022-10-20T16:12:45.149Z,19.80
2022-10-20T16:15:15.101Z,19.80
2022-10-20T16:17:43.535Z,19.80
2022-10-20T16:20:12.006Z,19.80
2022-10-20T16:22:40.579Z,19.90
2022-10-20T16:25:09.434Z,19.80
2022-10-20T16:27:38.526Z,19.80
2022-10-20T16:30:07.941Z,19.80
2022-10-20T16:32:38.218Z,19.80
2022-10-20T16:35:07.237Z,19.80
2022-10-20T16:37:36.042Z,19.80
2022-10-20T16:40:04.849Z,19.70
2022-10-20T16:42:33.229Z,19.70
2022-10-20T16:45:01.645Z,19.70
2022-10-20T16:47:30.222Z,19.70
2022-10-20T16:49:59.961Z,19.70
2022-10-20T16:52:28.520Z,19.70
2022-10-20T16:54:56.908Z,19.70
2022-10-20T16:57:26.565Z,19.70
2022-10-20T16:59:54.951Z,19.60
2022-10-20T17:02:23.397Z,19.60
2022-10-20T17:04:51.935Z,19.60
2022-10-20T17:07:21.720Z,19.60
2022-10-20T17:09:50.045Z,19.50
2022-10-20T17:12:18.479Z,19.50
2022-10-20T17:14:46.912Z,19.50
2022-10-20T17:17:15.302Z,19.40
2022-10-20T17:19:43.754Z,19.40
2022-10-20T17:22:12.326Z,19.40
2022-10-20T17:24:42.161Z,19.40
2022-10-20T17:27:10.667Z,19.40
2022-10-20T17:29:39.051Z,19.30
2022-10-20T17:32:07.422Z,19.30
2022-10-20T17:34:35.842Z,19.30
2022-10-20T17:37:04.288Z,19.30
2022-10-20T17:39:32.711Z,19.40
2022-10-20T17:42:02.533Z,19.40
2022-10-20T17:44:30.918Z,19.30
2022-10-20T17:47:01.539Z,19.30
2022-10-20T17:49:29.922Z,19.30
2022-10-20T17:51:58.278Z,19.20
2022-10-20T17:54:26.848Z,19.10
2022-10-20T17:56:55.296Z,19.10
2022-10-20T17:59:25.585Z,19.10
2022-10-20T18:01:54.138Z,19.00
2022-10-20T18:04:22.578Z,19.00
2022-10-20T18:06:51.180Z,19.00
2022-10-20T18:09:19.749Z,18.90
2022-10-20T18:11:49.811Z,18.90
2022-10-20T18:14:18.580Z,18.90
2022-10-20T18:16:48.321Z,18.90
2022-10-20T18:19:17.733Z,18.90
2022-10-20T18:21:46.184Z,18.90
2022-10-20T18:24:15.135Z,18.90
2022-10-20T18:26:43.956Z,18.90
2022-10-20T18:29:13.161Z,18.90
2022-10-20T18:31:42.261Z,18.90
2022-10-20T18:34:13.201Z,18.80
2022-10-20T18:36:44.957Z,18.80
2022-10-20T18:39:14.524Z,18.80
2022-10-20T18:41:43.619Z,18.80
2022-10-20T18:44:13.345Z,18.80
2022-10-20T18:46:41.839Z,18.80
2022-10-20T18:49:12.199Z,18.80
2022-10-20T18:51:42.092Z,18.70
2022-10-20T18:54:10.701Z,18.60
2022-10-20T18:56:39.079Z,18.50
2022-10-20T18:59:09.338Z,18.40
2022-10-20T19:01:38.365Z,18.40
2022-10-20T19:04:07.277Z,18.30
2022-10-20T19:06:37.522Z,18.30
2022-10-20T19:09:08.578Z,18.20
2022-10-20T19:11:38.426Z,18.10
2022-10-20T19:14:07.197Z,18.10
2022-10-20T19:16:36.018Z,18.10
2022-10-20T19:19:05.878Z,18.10
2022-10-20T19:21:34.556Z,18.00
2022-10-20T19:24:04.427Z,18.00
2022-10-20T19:26:34.848Z,17.90
2022-10-20T19:29:04.781Z,17.90
2022-10-20T19:31:33.986Z,17.90
2022-10-20T19:34:03.492Z,17.90
2022-10-20T19:36:31.935Z,17.90
2022-10-20T19:39:00.392Z,18.00
2022-10-20T19:41:28.770Z,18.00
2022-10-20T19:43:58.621Z,18.00
2022-10-20T19:46:27.013Z,17.90
2022-10-20T19:48:55.535Z,17.80
2022-10-20T19:51:24.013Z,17.70
2022-10-20T19:53:52.556Z,17.70
2022-10-20T19:56:20.986Z,17.60
2022-10-20T19:58:49.588Z,17.50
2022-10-20T20:01:19.413Z,17.50
2022-10-20T20:03:48.100Z,17.50
2022-10-20T20:06:17.299Z,17.50
2022-10-20T20:08:46.392Z,17.50
2022-10-20T20:11:23.779Z,17.50
2022-10-20T20:13:52.691Z,17.50
2022-10-20T20:16:22.866Z,17.50
2022-10-20T20:18:51.282Z,17.60
2022-10-20T20:21:21.994Z,17.70
2022-10-20T20:23:59.383Z,17.80
2022-10-20T20:26:28.828Z,17.80
2022-10-20T20:28:57.453Z,17.90
2022-10-20T20:31:27.712Z,17.90
2022-10-20T20:33:56.718Z,17.80
2022-10-20T20:36:27.077Z,17.70
2022-10-20T20:38:57.518Z,17.60
2022-10-20T20:41:26.846Z,17.50
2022-10-20T20:43:55.639Z,17.50
2022-10-20T20:46:24.818Z,17.60
2022-10-20T20:48:54.569Z,17.60
2022-10-20T20:51:22.932Z,17.70
2022-10-20T20:53:51.361Z,17.70
2022-10-20T20:56:21.935Z,17.60
2022-10-20T20:58:54.929Z,17.50
2022-10-20T21:01:25.171Z,17.60
2022-10-20T21:03:55.594Z,17.50
2022-10-20T21:06:33.123Z,17.50
2022-10-20T21:09:02.572Z,17.50
2022-10-20T21:11:31.041Z,17.60
2022-10-20T21:13:59.970Z,17.60
2022-10-20T21:16:29.565Z,17.40
2022-10-20T21:19:00.480Z,17.30
2022-10-20T21:21:29.688Z,17.30
2022-10-20T21:23:58.274Z,17.20
2022-10-20T21:26:27.029Z,17.10
2022-10-20T21:28:55.927Z,17.00
2022-10-20T21:31:25.178Z,17.00
2022-10-20T21:33:54.477Z,17.00
2022-10-20T21:36:24.504Z,17.00
2022-10-20T21:38:53.365Z,16.90
2022-10-20T21:41:22.616Z,16.90
2022-10-20T21:43:51.978Z,16.80
2022-10-20T21:46:21.433Z,16.70
2022-10-20T21:48:51.113Z,16.70
2022-10-20T21:51:20.163Z,16.70
2022-10-20T21:53:49.954Z,16.70
2022-10-20T21:56:18.333Z,16.60
2022-10-20T21:58:46.737Z,16.60
2022-10-20T22:01:16.069Z,16.60
2022-10-20T22:03:44.739Z,16.60
2022-10-20T22:06:14.479Z,16.70
2022-10-20T22:08:43.969Z,16.70
2022-10-20T22:11:14.561Z,16.70
2022-10-20T22:13:43.375Z,16.70
2022-10-20T22:16:13.313Z,16.70
2022-10-20T22:18:41.712Z,16.80
2022-10-20T22:21:13.353Z,16.80
2022-10-20T22:23:42.262Z,16.80
2022-10-20T22:26:11.039Z,16.70
2022-10-20T22:28:40.990Z,16.70
2022-10-20T22:31:09.425Z,16.80
2022-10-20T22:33:37.827Z,16.70
2022-10-20T22:36:06.495Z,16.80
2022-10-20T22:38:34.993Z,16.70
2022-10-20T22:41:04.043Z,16.70
2022-10-20T22:43:32.681Z,16.70
2022-10-20T22:46:02.518Z,16.60
2022-10-20T22:48:30.964Z,16.60
2022-10-20T22:50:59.393Z,16.70
2022-10-20T22:53:28.246Z,16.70
2022-10-20T22:55:57.657Z,16.70
2022-10-20T22:58:26.044Z,16.70
2022-10-20T23:00:54.470Z,16.70
2022-10-20T23:03:24.331Z,16.70
2022-10-20T23:05:52.711Z,16.70
2022-10-20T23:08:21.081Z,16.70
2022-10-20T23:10:56.770Z,16.70
2022-10-20T23:13:25.390Z,16.70
2022-10-20T23:15:53.729Z,16.70
2022-10-20T23:18:22.150Z,16.60
2022-10-20T23:20:54.788Z,16.60
2022-10-20T23:23:25.753Z,16.50
2022-10-20T23:25:54.213Z,16.60
2022-10-20T23:28:22.636Z,16.50
2022-10-20T23:30:51.007Z,16.50
2022-10-20T23:33:19.344Z,16.60
2022-10-20T23:35:47.816Z,16.60
2022-10-20T23:38:17.663Z,16.50
2022-10-20T23:40:46.097Z,16.60
2022-10-20T23:43:14.511Z,16.60
2022-10-20T23:45:44.320Z,16.60
2022-10-20T23:48:13.760Z,16.60
2022-10-20T23:50:43.661Z,16.60
2022-10-20T23:53:12.219Z,16.70
2022-10-20T23:55:42.835Z,16.60
2022-10-20T23:58:11.281Z,16.40
